Time;durP1;ratioP1;P1;durP2;ratioP2;P2;SDS_P1;SDS_P2;PMS_P1;PMS_P2;Temp;Humidity;BMP_temperature;BMP_pressure;BME280_temperature;BME280_humidity;BME280_pressure;Samples;Min_cycle;Max_cycle;Signal;HPM_P1;HPM_P2
2022/04/22 00:02:04;;;;;;;8.93;6.77;;;3.80;1.00;4.50;92921.00;;;;7395821;19;20675;-72
2022/04/22 00:04:38;;;;;;;7.83;6.50;;;3.80;1.00;4.40;92916.00;;;;7397469;19;20152;-73
2022/04/22 00:07:06;;;;;;;9.10;7.20;;;3.70;1.00;4.20;92909.00;;;;7396103;19;20137;-72
2022/04/22 00:09:33;;;;;;;7.70;6.83;;;3.60;1.00;4.30;92935.00;;;;7396691;19;20168;-72
2022/04/22 00:12:08;;;;;;;14.20;7.53;;;3.60;1.00;4.30;92924.00;;;;7396212;19;20149;-73
2022/04/22 00:14:35;;;;;;;10.07;7.23;;;3.60;51.00;4.40;92906.00;;;;7398460;19;20117;-72
2022/04/22 00:17:03;;;;;;;9.77;7.57;;;3.50;99.90;4.40;92917.00;;;;7396111;19;20513;-72
2022/04/22 00:19:37;;;;;;;9.37;8.03;;;3.60;99.90;4.30;92935.00;;;;7396117;19;20149;-72
2022/04/22 00:22:04;;;;;;;10.17;7.37;;;3.60;99.90;4.60;92894.00;;;;7396802;19;20137;-73
2022/04/22 00:24:31;;;;;;;9.47;7.93;;;3.70;99.90;4.50;92913.00;;;;7399561;19;20164;-71
2022/04/22 00:27:12;;;;;;;10.13;7.50;;;3.70;99.90;4.40;92930.00;;;;7394797;19;20631;-72
2022/04/22 00:29:45;;;;;;;10.27;7.93;;;3.70;76.20;4.10;92920.00;;;;7395593;19;20128;-72
2022/04/22 00:32:19;;;;;;;10.60;7.70;;;3.60;41.70;3.80;92899.00;;;;7396366;19;20125;-72
2022/04/22 00:34:46;;;;;;;11.03;7.70;;;3.40;62.80;3.70;92903.00;;;;7396196;19;20160;-72
2022/04/22 00:37:13;;;;;;;12.13;7.80;;;3.20;99.90;4.10;92908.00;;;;7394608;19;20141;-72
2022/04/22 00:39:47;;;;;;;9.60;7.80;;;3.20;99.90;3.90;92917.00;;;;7396001;19;20483;-72
2022/04/22 00:42:14;;;;;;;12.23;8.57;;;3.20;1.00;3.90;92906.00;;;;7397092;19;20153;-72
2022/04/22 00:44:41;;;;;;;10.20;7.80;;;3.10;1.00;3.80;92878.00;;;;7395088;19;20140;-72
2022/04/22 00:47:15;;;;;;;10.93;8.83;;;3.10;1.00;3.90;92919.00;;;;7394309;19;20564;-72
2022/04/22 00:49:42;;;;;;;13.37;8.43;;;3.10;1.00;3.60;92875.00;;;;7389276;19;20623;-74
2022/04/22 00:52:10;;;;;;;10.80;8.43;;;3.00;1.00;3.90;92867.00;;;;7389715;19;20148;-72
2022/04/22 00:54:47;;;;;;;15.90;9.70;;;3.00;54.90;3.90;92901.00;;;;7394816;19;20161;-72
2022/04/22 00:57:18;;;;;;;13.77;10.07;;;3.00;99.90;4.10;92870.00;;;;7395773;19;20977;-74
2022/04/22 00:59:52;;;;;;;14.03;9.33;;;3.20;99.90;4.20;92855.00;;;;7395351;19;20156;-73
2022/04/22 01:02:19;;;;;;;12.23;9.03;;;3.30;99.90;4.10;92890.00;;;;7393870;19;20136;-76
2022/04/22 01:10:24;;;;;;;14.63;9.03;;;3.40;1.00;3.80;92854.00;;;;7393537;19;20164;-75
2022/04/22 01:12:58;;;;;;;15.97;9.53;;;3.20;1.00;3.70;92880.00;;;;7399053;19;20572;-76
2022/04/22 01:15:26;;;;;;;12.87;9.73;;;3.10;1.00;3.70;92849.00;;;;7393828;19;20152;-76
2022/04/22 01:17:53;;;;;;;12.23;10.07;;;3.00;1.00;3.60;92875.00;;;;7394231;19;20152;-76
2022/04/22 01:20:27;;;;;;;14.10;9.77;;;3.00;8.50;3.50;92868.00;;;;7396639;19;20682;-76
2022/04/22 01:22:54;;;;;;;12.97;9.30;;;2.90;83.50;3.40;92859.00;;;;7396073;19;20121;-76
2022/04/22 01:25:21;;;;;;;14.83;10.63;;;2.80;55.80;3.40;92856.00;;;;7394906;19;20133;-76
2022/04/22 01:28:03;;;;;;;13.13;10.00;;;2.80;99.90;3.30;92861.00;;;;7393650;19;20567;-75
2022/04/22 01:30:37;;;;;;;11.80;10.10;;;2.70;99.90;3.60;92866.00;;;;7394152;19;20624;-76
2022/04/22 01:33:10;;;;;;;15.30;10.30;;;2.80;99.90;3.40;92838.00;;;;7395279;19;20164;-76
2022/04/22 01:35:37;;;;;;;17.77;10.43;;;2.70;99.90;3.50;92812.00;;;;7393020;19;20607;-76
2022/04/22 01:38:04;;;;;;;14.33;10.33;;;2.70;99.90;3.70;92848.00;;;;7394796;19;20148;-76
2022/04/22 01:40:38;;;;;;;14.53;11.20;;;2.80;1.00;3.90;92849.00;;;;7393568;19;20158;-76
2022/04/22 01:43:05;;;;;;;16.13;12.23;;;3.00;1.00;3.80;92819.00;;;;7394237;19;20625;-76
2022/04/22 01:45:32;;;;;;;15.90;11.40;;;3.00;1.00;3.60;92828.00;;;;7393047;19;20592;-76
2022/04/22 01:48:06;;;;;;;15.67;11.90;;;3.00;99.90;3.50;92846.00;;;;7394069;19;20583;-76
2022/04/22 01:50:33;;;;;;;14.97;11.53;;;2.90;99.90;3.40;92838.00;;;;7392857;19;20502;-76
2022/04/22 01:53:00;;;;;;;13.77;10.60;;;2.80;99.90;3.20;92806.00;;;;7393806;19;20588;-75
2022/04/22 01:55:34;;;;;;;14.17;11.53;;;2.70;99.90;3.10;92833.00;;;;7397193;19;20534;-77
2022/04/22 01:58:02;;;;;;;15.17;11.83;;;2.50;99.90;3.10;92821.00;;;;7394096;19;20174;-75
2022/04/22 02:00:29;;;;;;;15.97;12.13;;;2.50;99.90;3.00;92799.00;;;;7393391;19;20130;-75
2022/04/22 02:03:03;;;;;;;15.67;11.97;;;2.40;99.90;2.90;92827.00;;;;7395969;19;20587;-76
2022/04/22 02:05:32;;;;;;;14.73;11.47;;;2.30;99.90;2.90;92808.00;;;;7392907;19;20141;-77
2022/04/22 02:07:59;;;;;;;16.27;12.63;;;2.20;1.00;2.80;92817.00;;;;7391503;19;20137;-76
2022/04/22 02:10:33;;;;;;;15.50;12.47;;;2.20;1.00;2.90;92788.00;;;;7391868;19;20627;-75
2022/04/22 02:13:00;;;;;;;18.27;13.53;;;2.10;1.00;3.10;92812.00;;;;7394327;19;20161;-75
2022/04/22 02:15:28;;;;;;;18.90;13.07;;;2.20;1.00;2.90;92802.00;;;;7394122;19;20140;-75
2022/04/22 02:18:01;;;;;;;19.87;13.43;;;2.10;1.00;2.80;92822.00;;;;7392034;19;20145;-75
2022/04/22 02:20:31;;;;;;;18.57;13.90;;;2.10;1.00;2.80;92818.00;;;;7393181;19;20630;-75
2022/04/22 02:22:58;;;;;;;21.10;14.87;;;2.10;1.00;2.90;92809.00;;;;7393014;19;20611;-75
2022/04/22 02:25:32;;;;;;;24.60;15.17;;;2.10;1.00;3.00;92784.00;;;;7392070;19;20175;-75
2022/04/22 02:31:07;;;;;;;19.70;14.83;;;2.20;19.60;3.00;92773.00;;;;7391671;19;20140;-75
2022/04/22 02:33:38;;;;;;;23.17;16.87;;;2.20;58.40;3.00;92795.00;;;;7395277;19;20160;-75
2022/04/22 02:36:12;;;;;;;24.13;16.53;;;2.20;90.60;3.10;92768.00;;;;7391711;19;20141;-75
2022/04/22 02:38:39;;;;;;;24.30;17.83;;;2.30;99.90;3.10;92792.00;;;;7391605;19;20148;-75
2022/04/22 02:46:43;;;;;;;27.13;17.83;;;2.20;99.90;2.80;92741.00;;;;7393693;19;20219;-75
2022/04/22 02:49:17;;;;;;;25.00;16.67;;;2.10;99.90;2.70;92745.00;;;;7390683;19;20469;-75
2022/04/22 02:51:44;;;;;;;27.20;17.00;;;2.10;88.90;2.60;92780.00;;;;7392465;19;20484;-75
2022/04/22 02:54:11;;;;;;;26.13;16.23;;;2.00;99.90;2.50;92753.00;;;;7395437;19;20489;-75
2022/04/22 02:56:45;;;;;;;27.30;18.13;;;1.90;71.10;2.50;92771.00;;;;7395195;19;20147;-75
2022/04/22 02:59:12;;;;;;;28.97;18.63;;;1.90;99.90;2.50;92755.00;;;;7390889;19;20148;-75
2022/04/22 03:01:43;;;;;;;28.17;19.10;;;1.80;99.90;2.50;92744.00;;;;7392603;19;20125;-75
2022/04/22 03:04:16;;;;;;;28.20;18.53;;;1.90;99.90;2.40;92761.00;;;;7395339;19;20463;-75
2022/04/22 03:06:43;;;;;;;27.27;18.17;;;1.80;99.90;2.40;92757.00;;;;7390782;19;20149;-76
2022/04/22 03:09:10;;;;;;;29.37;19.67;;;1.80;99.90;2.50;92754.00;;;;7390889;19;20141;-76
2022/04/22 03:11:44;;;;;;;30.00;20.60;;;1.90;99.90;2.40;92712.00;;;;7392025;19;20131;-76
2022/04/22 03:14:11;;;;;;;33.23;20.10;;;1.90;99.90;2.40;92738.00;;;;7393950;19;20156;-75
2022/04/22 03:16:38;;;;;;;34.37;21.67;;;1.80;99.90;2.60;92722.00;;;;7391450;19;20121;-76
2022/04/22 03:19:12;;;;;;;38.03;23.63;;;1.90;99.90;2.60;92742.00;;;;7391422;19;20118;-75
2022/04/22 03:21:40;;;;;;;30.40;21.50;;;1.90;99.90;2.50;92746.00;;;;7392378;19;20132;-76
2022/04/22 03:24:07;;;;;;;34.67;22.93;;;2.00;99.90;2.50;92695.00;;;;7393069;19;20137;-76
2022/04/22 03:26:40;;;;;;;35.03;22.60;;;1.90;99.90;2.40;92719.00;;;;7390297;19;20141;-75
2022/04/22 03:29:13;;;;;;;34.67;23.03;;;1.90;99.90;2.30;92720.00;;;;7389575;19;20207;-75
2022/04/22 03:31:54;;;;;;;37.90;23.00;;;1.80;99.90;2.40;92746.00;;;;7391798;19;20143;-76
2022/04/22 03:34:22;;;;;;;41.57;24.47;;;1.80;99.90;2.40;92715.00;;;;7394976;19;20146;-75
2022/04/22 03:36:56;;;;;;;40.63;24.90;;;1.80;99.90;2.30;92740.00;;;;7391242;19;20609;-76
2022/04/22 03:39:23;;;;;;;43.53;25.77;;;1.70;99.90;2.20;92746.00;;;;7390979;19;20167;-76
2022/04/22 03:41:50;;;;;;;39.30;24.70;;;1.70;99.90;2.20;92747.00;;;;7389426;19;20145;-76
2022/04/22 03:44:24;;;;;;;42.70;27.57;;;1.60;99.90;2.20;92746.00;;;;7392706;19;20171;-76
2022/04/22 03:46:51;;;;;;;45.90;27.23;;;1.60;99.90;2.30;92719.00;;;;7393027;19;20473;-76
2022/04/22 03:49:18;;;;;;;48.90;28.27;;;1.60;99.90;2.40;92706.00;;;;7388238;19;20617;-75
2022/04/22 03:51:52;;;;;;;51.90;28.30;;;1.70;99.90;2.40;92747.00;;;;7389280;19;20212;-75
2022/04/22 03:54:22;;;;;;;49.30;28.00;;;1.80;99.90;2.40;92714.00;;;;7394232;19;20150;-75
2022/04/22 03:59:42;;;;;;;54.83;30.30;;;1.80;99.90;2.30;92738.00;;;;7391048;19;20149;-75
2022/04/22 04:02:09;;;;;;;56.73;30.73;;;1.70;99.90;2.30;92735.00;;;;7387706;19;20212;-76
2022/04/22 04:04:36;;;;;;;58.53;31.20;;;1.70;99.90;2.50;92716.00;;;;7394333;19;20137;-75
2022/04/22 04:07:10;;;;;;;56.50;30.80;;;1.80;99.90;2.30;92717.00;;;;7391430;19;20149;-75
2022/04/22 04:18:07;;;;;;;63.77;34.10;;;1.50;99.90;2.10;92734.00;;;;7400713;19;20155;-76
2022/04/22 04:23:26;;;;;;;67.40;34.07;;;1.60;1.00;2.10;92725.00;;;;7398879;19;20216;-76
2022/04/22 04:25:53;;;;;;;73.83;36.93;;;1.60;1.00;2.10;92716.00;;;;7396429;19;20494;-76
2022/04/22 04:28:23;;;;;;;73.53;35.60;;;1.50;1.00;2.10;92734.00;;;;7394045;19;20161;-76
2022/04/22 04:31:02;;;;;;;70.33;35.40;;;1.50;1.00;2.10;92730.00;;;;7395644;19;20603;-75
2022/04/22 04:33:31;;;;;;;69.50;35.07;;;1.60;1.00;2.00;92734.00;;;;7397682;19;20161;-75
2022/04/22 04:36:06;;;;;;;70.47;34.83;;;1.50;1.00;2.00;92712.00;;;;7395872;19;20136;-75
2022/04/22 04:38:33;;;;;;;70.00;34.73;;;1.50;1.00;1.90;92716.00;;;;7395170;19;20137;-75
2022/04/22 04:41:00;;;;;;;71.80;34.67;;;1.40;1.00;1.90;92732.00;;;;7396259;19;20141;-76
2022/04/22 04:43:40;;;;;;;72.90;35.87;;;1.40;1.00;2.00;92725.00;;;;7396834;19;20483;-76
2022/04/22 04:46:10;;;;;;;75.33;36.57;;;1.30;1.00;2.20;92722.00;;;;7396439;19;20129;-75
2022/04/22 04:48:44;;;;;;;78.00;38.10;;;1.40;1.00;2.30;92733.00;;;;7395459;19;20567;-76
2022/04/22 04:51:11;;;;;;;85.50;39.93;;;1.60;1.00;2.30;92723.00;;;;7397579;19;20138;-76
2022/04/22 04:53:38;;;;;;;83.60;38.50;;;1.70;1.00;2.30;92710.00;;;;7395988;19;20170;-75
2022/04/22 04:56:12;;;;;;;92.77;39.97;;;1.70;1.00;2.40;92689.00;;;;7395100;19;20132;-76
2022/04/22 04:58:39;;;;;;;85.93;39.67;;;1.70;1.00;2.30;92733.00;;;;7395758;19;20500;-75
2022/04/22 05:01:06;;;;;;;80.70;38.77;;;1.80;1.00;2.40;92713.00;;;;7392821;19;20158;-75
2022/04/22 05:03:40;;;;;;;93.07;40.93;;;1.80;1.00;2.60;92724.00;;;;7395836;19;20145;-75
2022/04/22 05:06:08;;;;;;;97.60;42.77;;;1.90;1.00;2.80;92736.00;;;;7398657;19;20135;-76
2022/04/22 05:08:35;;;;;;;99.73;41.37;;;2.00;1.00;2.90;92729.00;;;;7398218;19;20144;-75
2022/04/22 05:11:09;;;;;;;108.17;45.17;;;2.10;1.00;3.10;92717.00;;;;7395250;19;20604;-75
2022/04/22 05:13:36;;;;;;;121.27;46.57;;;2.20;1.00;3.30;92736.00;;;;7396381;19;20500;-75
2022/04/22 05:16:04;;;;;;;109.50;47.23;;;2.40;1.00;3.40;92720.00;;;;7398822;19;20151;-75
2022/04/22 05:18:38;;;;;;;112.93;46.70;;;2.50;1.00;3.60;92722.00;;;;7397991;19;20115;-75
2022/04/22 05:21:05;;;;;;;100.43;46.73;;;2.60;1.00;3.70;92699.00;;;;7395190;19;20133;-75
2022/04/22 05:23:33;;;;;;;113.77;48.90;;;2.80;1.00;3.90;92726.00;;;;7395847;19;20156;-75
2022/04/22 05:26:06;;;;;;;112.77;50.17;;;2.90;1.00;4.00;92709.00;;;;7398658;19;20147;-75
2022/04/22 05:28:46;;;;;;;105.93;49.23;;;3.10;1.00;4.30;92720.00;;;;7396937;19;20167;-75
2022/04/22 05:34:06;;;;;;;104.63;49.53;;;3.30;15.10;4.60;92713.00;;;;7395824;19;20129;-75
2022/04/22 05:36:39;;;;;;;96.53;44.47;;;3.40;31.70;4.80;92719.00;;;;7396429;19;20140;-75
2022/04/22 05:39:08;;;;;;;93.60;46.70;;;3.50;53.50;5.00;92724.00;;;;7394918;19;20200;-75
2022/04/22 05:41:36;;;;;;;91.77;46.30;;;3.60;74.30;5.00;92704.00;;;;7396135;19;20583;-75
2022/04/22 05:44:09;;;;;;;79.23;42.33;;;3.80;99.90;5.00;92699.00;;;;7392505;19;20156;-75
2022/04/22 05:46:36;;;;;;;80.90;43.33;;;3.90;99.90;5.30;92721.00;;;;7395897;19;20145;-75
2022/04/22 05:49:03;;;;;;;68.33;39.80;;;4.10;99.90;5.40;92726.00;;;;7391479;19;20140;-76
2022/04/22 05:51:37;;;;;;;71.73;39.00;;;4.10;99.90;5.40;92714.00;;;;7396840;19;20165;-75
2022/04/22 05:54:04;;;;;;;61.87;40.93;;;4.10;99.90;5.70;92703.00;;;;7394251;19;20184;-76
2022/04/22 05:56:31;;;;;;;63.20;40.10;;;4.30;99.90;5.70;92719.00;;;;7394621;19;20167;-75
2022/04/22 05:59:08;;;;;;;68.77;36.30;;;4.40;99.90;5.80;92724.00;;;;7391521;19;20125;-75
2022/04/22 06:01:36;;;;;;;61.70;38.17;;;4.50;99.90;6.10;92723.00;;;;7396065;19;20994;-75
2022/04/22 06:04:03;;;;;;;56.10;36.07;;;4.60;99.90;6.30;92731.00;;;;7394918;19;20148;-75
2022/04/22 06:06:37;;;;;;;50.00;34.13;;;4.80;99.90;6.40;92720.00;;;;7397545;19;20125;-75
2022/04/22 06:12:05;;;;;;;43.27;30.50;;;5.10;1.00;6.50;92712.00;;;;7395431;19;20171;-75
2022/04/22 06:14:32;;;;;;;43.20;31.27;;;5.20;1.00;7.00;92707.00;;;;7391132;19;20584;-76
2022/04/22 06:17:00;;;;;;;36.80;28.83;;;5.30;1.00;7.20;92722.00;;;;7395352;19;20136;-75
2022/04/22 06:19:56;;;;;;;37.70;29.87;;;5.40;99.90;7.40;92713.00;;;;7391479;19;20551;-76
2022/04/22 06:22:31;;;;;;;34.80;27.63;;;5.60;1.00;7.70;92689.00;;;;7394299;19;20232;-76
2022/04/22 06:25:08;;;;;;;32.60;25.43;;;5.80;1.00;7.70;92697.00;;;;7390595;19;20164;-75
2022/04/22 06:27:52;;;;;;;32.43;25.50;;;6.00;99.90;7.60;92724.00;;;;7395165;19;20228;-75
2022/04/22 06:30:26;;;;;;;31.20;24.23;;;5.90;1.00;7.40;92677.00;;;;7390123;19;20580;-76
2022/04/22 06:32:55;;;;;;;31.27;23.70;;;6.00;1.00;7.50;92715.00;;;;7393016;19;20133;-76
2022/04/22 06:35:23;;;;;;;35.37;25.03;;;6.00;99.90;7.60;92719.00;;;;7392685;19;20258;-74
2022/04/22 06:37:56;;;;;;;27.63;22.80;;;6.10;99.90;7.80;92694.00;;;;7394572;19;20132;-75
2022/04/22 06:46:05;;;;;;;29.80;23.27;;;6.20;1.00;7.50;92705.00;;;;7388327;19;20627;-74
2022/04/22 06:48:41;;;;;;;32.17;23.90;;;6.20;8.30;8.10;92721.00;;;;7389475;19;20611;-75
2022/04/22 06:51:25;;;;;;;27.40;22.70;;;6.50;99.90;7.40;92709.00;;;;7390675;19;20149;-75
2022/04/22 06:54:02;;;;;;;28.83;23.10;;;6.50;99.90;8.70;92722.00;;;;7393426;19;20139;-75
2022/04/22 06:56:30;;;;;;;28.87;21.30;;;6.70;1.00;8.60;92708.00;;;;7394805;19;20141;-75
2022/04/22 06:58:58;;;;;;;26.30;21.83;;;6.80;1.00;8.60;92684.00;;;;7393831;19;20176;-75
2022/04/22 07:01:33;;;;;;;28.97;23.00;;;6.80;99.90;8.00;92691.00;;;;7391979;19;20136;-75
2022/04/22 07:04:10;;;;;;;32.77;23.53;;;6.70;99.90;8.40;92715.00;;;;7394041;19;20172;-75
2022/04/22 07:06:45;;;;;;;25.57;22.67;;;6.80;99.90;9.30;92696.00;;;;7392559;19;20148;-74
2022/04/22 07:09:13;;;;;;;27.03;21.70;;;7.20;99.90;9.60;92706.00;;;;7392251;19;20133;-75
2022/04/22 07:11:41;;;;;;;29.00;21.77;;;7.50;99.90;10.30;92695.00;;;;7389235;19;20224;-76
2022/04/22 07:14:15;;;;;;;28.20;21.80;;;7.80;48.30;10.90;92704.00;;;;7393522;19;20136;-75
2022/04/22 07:16:44;;;;;;;23.15;20.40;;;8.30;48.20;11.70;92662.00;;;;7392440;19;20486;-76
2022/04/22 07:19:12;;;;;;;24.45;20.20;;;8.60;99.90;11.80;92699.00;;;;7389989;19;20133;-75
2022/04/22 07:21:46;;;;;;;23.95;20.15;;;8.90;99.90;12.10;92691.00;;;;7392336;19;20140;-76
2022/04/22 07:24:14;;;;;;;23.15;19.45;;;9.00;99.90;12.00;92641.00;;;;7393818;19;20669;-74
2022/04/22 07:26:43;;;;;;;22.13;19.52;;;9.20;93.80;12.50;92690.00;;;;7393876;19;20141;-74
2022/04/22 07:29:32;;;;;;;24.52;19.10;;;9.40;1.00;12.70;92655.00;;;;7391926;19;20175;-75
2022/04/22 07:32:14;;;;;;;23.45;18.17;;;9.70;14.10;12.80;92683.00;;;;7389490;19;20144;-76
2022/04/22 07:34:48;;;;;;;22.20;18.63;;;9.90;1.00;13.00;92696.00;;;;7393817;19;20190;-75
2022/04/22 07:37:16;;;;;;;21.92;17.40;;;10.20;1.00;13.30;92673.00;;;;7390791;19;20160;-76
2022/04/22 07:39:44;;;;;;;21.92;18.38;;;10.40;1.00;13.10;92686.00;;;;7394138;19;20467;-74
2022/04/22 07:42:21;;;;;;;22.00;18.30;;;10.60;99.90;12.90;92684.00;;;;7390744;19;20200;-75
2022/04/22 07:47:44;;;;;;;19.90;16.60;;;10.70;99.90;12.80;92677.00;;;;7399036;19;20633;-75
2022/04/22 07:50:13;;;;;;;18.40;16.50;;;10.70;99.90;12.90;92682.00;;;;7399473;19;20146;-75
2022/04/22 07:52:44;;;;;;;20.60;17.60;;;10.70;99.90;13.10;92675.00;;;;7398978;19;20132;-73
2022/04/22 07:55:18;;;;;;;18.88;16.33;;;10.70;90.40;13.60;92655.00;;;;7399134;19;20464;-75
2022/04/22 07:57:46;;;;;;;22.23;17.20;;;10.90;82.40;13.30;92661.00;;;;7398801;19;20228;-74
2022/04/22 08:00:18;;;;;;;20.75;17.83;;;11.00;72.50;14.30;92664.00;;;;7400448;19;20125;-74
2022/04/22 08:02:52;;;;;;;21.45;17.58;;;11.20;18.20;13.80;92683.00;;;;7398023;19;20484;-74
2022/04/22 08:05:19;;;;;;;19.63;16.83;;;11.30;12.30;14.10;92677.00;;;;7395768;19;20200;-74
2022/04/22 08:07:47;;;;;;;19.98;17.45;;;11.50;1.00;14.20;92689.00;;;;7398348;19;20189;-75
2022/04/22 08:10:20;;;;;;;17.92;16.02;;;11.60;89.90;14.70;92689.00;;;;7395495;19;20172;-74
2022/04/22 08:12:47;;;;;;;18.83;16.60;;;12.10;1.00;15.50;92681.00;;;;7385710;19;20444;-74
2022/04/22 08:15:15;;;;;;;23.77;16.67;;;12.50;1.00;15.40;92679.00;;;;7396981;19;20141;-74
2022/04/22 08:17:49;;;;;;;18.20;16.38;;;12.80;1.00;15.20;92670.00;;;;7396762;19;20146;-75
2022/04/22 08:20:17;;;;;;;17.75;16.02;;;12.60;1.00;15.20;92692.00;;;;7397577;19;20136;-74
2022/04/22 08:22:45;;;;;;;18.23;16.40;;;12.70;1.00;15.80;92675.00;;;;7400006;19;20606;-74
2022/04/22 08:25:19;;;;;;;16.92;15.23;;;12.90;1.00;15.80;92676.00;;;;7397856;19;20132;-74
2022/04/22 08:27:46;;;;;;;17.98;16.08;;;13.10;1.00;15.70;92687.00;;;;7395927;19;20160;-76
2022/04/22 08:30:21;;;;;;;18.42;16.00;;;13.40;1.00;15.70;92680.00;;;;7396110;19;20185;-75
2022/04/22 08:32:56;;;;;;;18.90;15.32;;;13.60;1.00;15.70;92699.00;;;;7399532;19;20152;-75
2022/04/22 08:35:23;;;;;;;18.33;15.70;;;13.40;1.00;15.60;92689.00;;;;7394742;19;20604;-75
2022/04/22 08:37:50;;;;;;;17.50;15.70;;;13.10;1.00;15.80;92676.00;;;;7398513;19;20148;-75
2022/04/22 08:40:26;;;;;;;20.15;17.95;;;13.20;1.00;16.20;92693.00;;;;7397534;19;20144;-73
2022/04/22 08:43:00;;;;;;;18.95;16.95;;;13.50;1.00;16.00;92693.00;;;;7404346;19;20149;-75
2022/04/22 08:45:35;;;;;;;19.98;16.42;;;13.70;99.90;16.40;92678.00;;;;7402252;19;20133;-75
2022/04/22 08:50:59;;;;;;;16.80;15.20;;;13.80;99.90;16.40;92683.00;;;;7395451;19;20149;-75
2022/04/22 08:53:31;;;;;;;23.50;17.33;;;13.70;99.90;16.90;92671.00;;;;7397477;19;20627;-73
2022/04/22 08:56:10;;;;;;;17.77;15.93;;;14.10;1.00;16.90;92682.00;;;;7397128;19;20603;-75
2022/04/22 08:58:39;;;;;;;18.65;16.75;;;14.10;1.00;17.60;92687.00;;;;7400679;19;20159;-73
2022/04/22 09:01:14;;;;;;;16.25;14.50;;;;;18.20;92679.00;;;;7399992;19;20152;-75
2022/04/22 09:03:42;;;;;;;17.38;15.23;;;;;17.90;92682.00;;;;7391946;19;20358;-75
2022/04/22 09:06:11;;;;;;;16.95;14.93;;;;;18.10;92673.00;;;;7404254;19;20129;-75
2022/04/22 09:08:48;;;;;;;17.60;15.80;;;;;18.30;92678.00;;;;7402160;19;20152;-75
2022/04/22 09:11:17;;;;;;;16.58;14.77;;;;;17.00;92681.00;;;;7400917;19;20126;-75
2022/04/22 09:13:45;;;;;;;16.98;15.18;;;;;18.00;92674.00;;;;7401701;19;20144;-73
2022/04/22 09:16:22;;;;;;;15.02;13.55;;;;;17.90;92673.00;;;;7401552;19;20235;-74
2022/04/22 09:19:00;;;;;;;17.35;14.23;;;;;18.30;92670.00;;;;7403111;19;20227;-74
2022/04/22 09:21:35;;;;;;;16.10;14.07;;;;;18.20;92677.00;;;;7400683;19;20149;-75
2022/04/22 09:24:14;;;;;;;17.90;15.25;;;;;18.60;92671.00;;;;7404579;19;20141;-75
2022/04/22 09:27:04;;;;;;;16.33;12.88;;;;;18.80;92676.00;;;;7402616;19;20125;-75
2022/04/22 09:30:13;;;;;;;15.00;13.40;;;;;19.10;92665.00;;;;7399919;19;20173;-75
2022/04/22 09:32:48;;;;;;;20.40;13.55;;;;;19.10;92659.00;;;;7403630;19;20251;-75
2022/04/22 09:35:23;;;;;;;14.98;13.57;;;;;19.10;92659.00;;;;7400561;19;20125;-74
2022/04/22 09:43:47;;;;;;;14.18;12.77;;;;;18.10;92651.00;;;;7399408;19;20152;-74
2022/04/22 09:46:27;;;;;;;14.32;12.82;;;;;18.20;92654.00;;;;7400320;19;20147;-76
2022/04/22 09:49:02;;;;;;;13.73;12.30;;;;;18.80;92645.00;;;;7396367;19;20143;-75
2022/04/22 09:51:31;;;;;;;13.02;11.82;;;;;18.40;92655.00;;;;7399420;19;20531;-74
2022/04/22 09:54:05;;;;;;;13.55;12.02;;;;;18.90;92642.00;;;;7399026;19;20217;-76
2022/04/22 09:56:56;;;;;;;13.82;12.45;;;;;19.10;92655.00;;;;7397506;19;20166;-75
2022/04/22 09:59:26;;;;;;;13.90;12.45;;;;;18.80;92654.00;;;;7397155;19;20149;-77
2022/04/22 10:02:02;;;;;;;16.83;13.93;;;;;18.90;92658.00;;;;7397758;19;20187;-76
2022/04/22 10:04:38;;;;;;;14.45;12.93;;;;;19.10;92653.00;;;;7399443;19;20170;-74
2022/04/22 10:07:12;;;;;;;14.57;13.00;;;;;19.50;92658.00;;;;7395284;19;20172;-75
2022/04/22 10:09:41;;;;;;;15.05;13.52;;;;;20.00;92654.00;;;;7398670;19;20155;-74
2022/04/22 10:12:12;;;;;;;15.13;13.57;;;;;19.20;92653.00;;;;7399605;19;20176;-76
2022/04/22 10:14:48;;;;;;;14.23;12.82;;;;;18.60;92665.00;;;;7398818;19;20224;-74
2022/04/22 10:17:18;;;;;;;14.98;13.50;;;;;18.40;92645.00;;;;7398076;19;20152;-74
2022/04/22 10:19:46;;;;;;;14.60;13.20;;;;;19.10;92649.00;;;;7401059;19;20133;-76
2022/04/22 10:22:25;;;;;;;14.45;12.95;;;;;19.00;92664.00;;;;7400175;19;20125;-77
2022/04/22 10:24:54;;;;;;;14.75;13.15;;;;;18.10;92651.00;;;;7399999;19;20156;-73
2022/04/22 10:27:32;;;;;;;15.23;13.70;;;;;18.60;92651.00;;;;7396547;19;20148;-75
2022/04/22 10:30:10;;;;;;;14.00;12.63;;;;;18.80;92657.00;;;;7396347;19;20172;-75
2022/04/22 10:32:48;;;;;;;12.35;11.15;;;;;18.50;92664.00;;;;7398516;19;20156;-75
2022/04/22 10:35:21;;;;;;;13.32;12.00;;;;;18.30;92661.00;;;;7398854;19;20152;-75
2022/04/22 10:37:58;;;;;;;13.90;12.57;;;;;17.80;92656.00;;;;7396449;19;20163;-74
2022/04/22 10:40:27;;;;;;;15.00;12.90;;;;;18.40;92662.00;;;;7398177;19;20153;-74
2022/04/22 10:42:55;;;;;;;15.90;14.10;;;;;18.80;92659.00;;;;7398521;19;20140;-76
2022/04/22 10:48:29;;;;;;;18.67;14.00;;;;;20.40;92674.00;;;;7398649;19;20211;-76
2022/04/22 10:51:04;;;;;;;14.15;12.63;;;;;20.00;92654.00;;;;7397362;19;20149;-75
2022/04/22 10:53:45;;;;;;;14.40;12.95;;;;;19.80;92653.00;;;;7394670;19;20152;-75
2022/04/22 10:56:41;;;;;;;14.38;12.65;;;;;20.90;92644.00;;;;7399986;19;20132;-75
2022/04/22 10:59:22;;;;;;;14.27;12.88;;;;;21.00;92641.00;;;;7397411;19;20136;-75
2022/04/22 11:01:57;;;;;;;16.73;14.25;;;;;20.50;92642.00;;;;7391882;19;20164;-75
2022/04/22 11:04:39;;;;;;;14.65;13.23;;;;;20.20;92634.00;;;;7397912;19;20152;-76
2022/04/22 11:07:50;;;;;;;13.95;12.65;;;;;21.00;92632.00;;;;7393615;19;20140;-76
2022/04/22 11:10:53;;;;;;;15.25;13.65;;;;;18.40;92679.00;;;;7394020;19;20620;-76
2022/04/22 11:13:41;;;;;;;15.10;13.70;;;;;19.90;92649.00;;;;7396026;19;20151;-76
2022/04/22 11:16:28;;;;;;;14.65;13.27;;;;;20.90;92632.00;;;;7395902;19;20136;-79
2022/04/22 11:19:18;;;;;;;15.20;13.57;;;;;19.80;92644.00;;;;7411727;19;20202;-76
2022/04/22 11:21:53;;;;;;;15.38;13.75;;;;;20.40;92653.00;;;;7411391;19;20563;-76
2022/04/22 11:24:29;;;;;;;15.00;13.43;;;;;20.90;92650.00;;;;7410189;19;20905;-77
2022/04/22 11:27:27;;;;;;;14.35;12.95;;;;;21.40;92650.00;;;;7412144;19;20512;-77
2022/04/22 11:30:17;;;;;;;14.02;12.65;;;;;21.70;92640.00;;;;7406966;19;20152;-79
2022/04/22 11:32:59;;;;;;;14.07;12.68;;;;;20.70;92669.00;;;;7412455;19;20148;-76
2022/04/22 11:35:34;;;;;;;14.23;12.82;;;;;21.00;92643.00;;;;7411850;19;20135;-77
2022/04/22 11:38:06;;;;;;;14.60;13.20;;;;;21.00;92647.00;;;;7409953;19;20536;-78
2022/04/22 11:40:38;;;;;;;16.33;13.70;;;;;19.00;92634.00;;;;7406957;19;20200;-76
2022/04/22 11:43:18;;;;;;;14.82;13.43;;;;;18.60;92650.00;;;;7406311;19;20860;-77
2022/04/22 11:45:50;;;;;;;14.00;12.60;;;;;18.70;92635.00;;;;7408266;19;20192;-76
2022/04/22 11:49:00;;;;;;;15.85;13.45;;;;;20.10;92641.00;;;;7406271;19;20230;-75
2022/04/22 11:51:37;;;;;;;14.07;12.65;;;;;20.30;92626.00;;;;7405594;19;20148;-75
2022/04/22 11:54:27;;;;;;;13.93;11.93;;;;;21.80;92631.00;;;;7406692;19;20480;-76
2022/04/22 11:56:59;;;;;;;13.88;12.48;;;;;21.60;92641.00;;;;7409019;19;20456;-75
2022/04/22 12:05:50;;;;;;;13.50;12.10;;;;;22.10;92626.00;;;;7406207;19;20163;-76
2022/04/22 12:08:19;;;;;;;13.82;12.50;;;;;22.70;92628.00;;;;7407956;19;20269;-76
2022/04/22 12:10:55;;;;;;;13.95;12.48;;;;;22.70;92619.00;;;;7405572;19;20209;-76
2022/04/22 12:13:26;;;;;;;14.73;13.32;;;;;21.70;92660.00;;;;7405758;19;20145;-77
2022/04/22 12:15:54;;;;;;;14.73;13.32;;;;;21.10;92639.00;;;;7408129;19;20136;-75
2022/04/22 12:18:33;;;;;;;14.25;12.90;;;;;22.00;92635.00;;;;7409719;19;20631;-74
2022/04/22 12:21:05;;;;;;;13.40;12.07;;;;;23.10;92633.00;;;;7408937;19;20131;-75
2022/04/22 12:23:57;;;;;;;24.90;15.05;;;;;23.20;92633.00;;;;7409624;19;20140;-76
2022/04/22 12:26:27;;;;;;;15.73;14.32;;;;;22.20;92658.00;;;;7408021;19;20129;-76
2022/04/22 12:29:19;;;;;;;16.02;14.52;;;;;20.40;92663.00;;;;7399237;19;20159;-76
2022/04/22 12:31:56;;;;;;;15.93;14.43;;;;;21.00;92639.00;;;;7394606;19;20235;-75
2022/04/22 12:34:34;;;;;;;17.02;14.27;;;;;22.00;92622.00;;;;7394285;19;20156;-75
2022/04/22 12:37:07;;;;;;;16.08;14.40;;;;;21.60;92627.00;;;;7403003;19;20595;-75
2022/04/22 12:39:44;;;;;;;15.68;14.07;;;;;21.50;92662.00;;;;7402512;19;20224;-75